createdAt,value
2023-02-13T00:00:23.970Z,103474.00
2023-02-13T00:02:50.903Z,103475.69
2023-02-13T00:05:18.506Z,103470.50
2023-02-13T00:07:45.069Z,103478.28
2023-02-13T00:10:11.989Z,103466.19
2023-02-13T00:12:38.594Z,103463.59
2023-02-13T00:15:06.008Z,103467.91
2023-02-13T00:17:33.067Z,103464.44
2023-02-13T00:19:59.840Z,103465.31
2023-02-13T00:22:27.092Z,103461.00
2023-02-13T00:24:53.612Z,103463.59
2023-02-13T00:27:21.097Z,103450.63
2023-02-13T00:29:47.682Z,103447.19
2023-02-13T00:32:14.970Z,103453.22
2023-02-13T00:34:42.504Z,103449.78
2023-02-13T00:37:09.045Z,103453.22
2023-02-13T00:39:35.931Z,103450.63
2023-02-13T00:42:02.518Z,103443.72
2023-02-13T00:44:29.210Z,103435.09
2023-02-13T00:46:55.818Z,103448.06
2023-02-13T00:49:22.617Z,103438.56
2023-02-13T00:51:49.139Z,103448.91
2023-02-13T00:54:16.417Z,103448.06
2023-02-13T00:56:43.132Z,103447.19
2023-02-13T00:59:09.750Z,103445.47
2023-02-13T01:01:36.452Z,103449.78
2023-02-13T01:04:03.411Z,103450.63
2023-02-13T01:06:30.029Z,103452.38
2023-02-13T01:08:56.579Z,103454.03
2023-02-13T01:11:23.239Z,103447.13
2023-02-13T01:13:49.791Z,103454.91
2023-02-13T01:16:17.970Z,103445.34
2023-02-13T01:18:44.835Z,103447.91
2023-02-13T01:21:18.044Z,103452.22
2023-02-13T01:23:45.140Z,103445.31
2023-02-13T01:26:19.505Z,103447.88
2023-02-13T01:28:46.215Z,103446.16
2023-02-13T01:31:12.913Z,103447.91
2023-02-13T01:33:40.004Z,103445.31
2023-02-13T01:36:09.507Z,103447.91
2023-02-13T01:38:36.279Z,103438.41
2023-02-13T01:41:02.850Z,103441.00
2023-02-13T01:43:56.672Z,103436.69
2023-02-13T01:46:42.902Z,103440.00
2023-02-13T01:49:15.788Z,103435.69
2023-02-13T01:51:43.318Z,103430.50
2023-02-13T01:54:16.937Z,103436.56
2023-02-13T01:56:46.686Z,103438.34
2023-02-13T01:59:19.969Z,103437.44
2023-02-13T02:01:47.192Z,103431.44
2023-02-13T02:04:16.303Z,103425.31
2023-02-13T02:06:46.017Z,103426.19
2023-02-13T02:09:17.094Z,103422.72
2023-02-13T02:12:12.064Z,103423.53
2023-02-13T02:14:41.226Z,103429.59
2023-02-13T02:17:08.081Z,103427.03
2023-02-13T02:19:56.208Z,103428.78
2023-02-13T02:22:32.782Z,103425.25
2023-02-13T02:25:18.183Z,103429.63
2023-02-13T02:28:03.626Z,103427.00
2023-02-13T02:30:33.224Z,103424.41
2023-02-13T02:33:16.029Z,103427.00
2023-02-13T02:36:27.351Z,103424.41
2023-02-13T02:38:53.829Z,103425.31
2023-02-13T02:41:58.375Z,103421.00
2023-02-13T02:44:42.330Z,103433.09
2023-02-13T02:47:36.635Z,103429.56
2023-02-13T02:50:33.521Z,103424.28
2023-02-13T02:53:12.617Z,103430.31
2023-02-13T02:55:49.225Z,103431.16
2023-02-13T02:58:52.363Z,103429.44
2023-02-13T03:01:41.995Z,103432.91
2023-02-13T03:04:37.996Z,103434.69
2023-02-13T03:07:09.410Z,103432.88
2023-02-13T03:09:59.240Z,103428.56
2023-02-13T03:12:52.253Z,103426.78
2023-02-13T03:15:19.237Z,103430.28
2023-02-13T03:18:04.212Z,103430.31
2023-02-13T03:21:04.819Z,103432.03
2023-02-13T03:23:54.134Z,103426.78
2023-02-13T03:26:45.765Z,103425.97
2023-02-13T03:29:42.785Z,103421.59
2023-02-13T03:32:19.537Z,103431.06
2023-02-13T03:35:18.827Z,103432.75
2023-02-13T03:37:56.718Z,103427.59
2023-02-13T03:41:09.202Z,103422.38
2023-02-13T03:43:56.189Z,103425.91
2023-02-13T03:46:24.605Z,103425.06
2023-02-13T03:49:10.311Z,103431.09
2023-02-13T03:51:44.080Z,103431.91
2023-02-13T03:54:47.285Z,103430.22
2023-02-13T03:57:37.373Z,103428.50
2023-02-13T04:00:08.729Z,103429.28
2023-02-13T04:02:40.542Z,103436.97
2023-02-13T04:05:19.084Z,103437.00
2023-02-13T04:07:45.879Z,103436.13
2023-02-13T04:10:15.679Z,103442.16
2023-02-13T04:13:00.810Z,103442.19
2023-02-13T04:15:42.086Z,103430.16
2023-02-13T04:18:30.271Z,103437.00
2023-02-13T04:20:57.228Z,103435.31
2023-02-13T04:23:23.923Z,103429.28
2023-02-13T04:25:54.122Z,103422.31
2023-02-13T04:28:20.762Z,103422.31
2023-02-13T04:30:47.338Z,103424.97
2023-02-13T04:33:14.006Z,103428.38
2023-02-13T04:35:40.494Z,103428.34
2023-02-13T04:38:07.097Z,103424.91
2023-02-13T04:40:33.677Z,103432.63
2023-02-13T04:43:01.234Z,103434.31
2023-02-13T04:45:27.762Z,103434.34
2023-02-13T04:47:55.830Z,103436.94
2023-02-13T04:50:23.161Z,103426.63
2023-02-13T04:52:54.613Z,103436.13
2023-02-13T04:55:22.260Z,103430.97
2023-02-13T04:57:48.914Z,103425.78
2023-02-13T05:00:15.689Z,103422.38
2023-02-13T05:02:42.232Z,103427.50
2023-02-13T05:05:08.769Z,103430.09
2023-02-13T05:07:37.619Z,103418.88
2023-02-13T05:10:04.619Z,103426.63
2023-02-13T05:12:31.226Z,103417.97
2023-02-13T05:14:57.936Z,103418.84
2023-02-13T05:17:26.657Z,103432.59
2023-02-13T05:19:54.559Z,103420.50
2023-02-13T05:22:39.474Z,103421.38
2023-02-13T05:25:06.098Z,103420.56
2023-02-13T05:27:32.828Z,103421.38
2023-02-13T05:29:59.568Z,103417.06
2023-02-13T05:32:26.173Z,103410.25
2023-02-13T05:34:56.015Z,103415.44
2023-02-13T05:37:22.599Z,103417.16
2023-02-13T05:39:49.215Z,103412.81
2023-02-13T05:42:16.220Z,103414.50
2023-02-13T05:44:42.775Z,103411.09
2023-02-13T05:47:09.310Z,103414.50
2023-02-13T05:52:04.348Z,103406.72
2023-02-13T05:54:30.984Z,103406.66
2023-02-13T05:56:57.448Z,103409.22
2023-02-13T05:59:24.344Z,103411.78
2023-02-13T06:01:50.830Z,103412.63
2023-02-13T06:04:17.428Z,103404.81
2023-02-13T06:06:44.877Z,103404.81
2023-02-13T06:09:11.424Z,103403.91
2023-02-13T06:11:37.961Z,103400.44
2023-02-13T06:14:04.683Z,103402.09
2023-02-13T06:16:34.664Z,103404.69
2023-02-13T06:19:01.194Z,103403.03
2023-02-13T06:21:27.710Z,103399.59
2023-02-13T06:23:54.284Z,103401.31
2023-02-13T06:26:20.782Z,103394.47
2023-02-13T06:28:47.429Z,103394.50
2023-02-13T06:31:14.437Z,103397.06
2023-02-13T06:33:40.921Z,103404.84
2023-02-13T06:36:08.049Z,103399.69
2023-02-13T06:38:34.527Z,103404.84
2023-02-13T06:41:04.688Z,103398.84
2023-02-13T06:43:31.178Z,103401.44
2023-02-13T06:45:57.646Z,103401.41
2023-02-13T06:48:24.766Z,103396.22
2023-02-13T06:50:53.944Z,103395.34
2023-02-13T06:53:24.880Z,103403.13
2023-02-13T06:55:55.607Z,103396.22
2023-02-13T06:58:23.862Z,103393.63
2023-02-13T07:00:51.571Z,103399.66
2023-02-13T07:03:18.413Z,103397.94
2023-02-13T07:05:45.288Z,103394.47
2023-02-13T07:08:12.585Z,103395.28
2023-02-13T07:10:40.432Z,103393.56
2023-02-13T07:13:07.925Z,103403.09
2023-02-13T07:15:35.053Z,103408.28
2023-02-13T07:18:01.620Z,103414.34
2023-02-13T07:20:28.601Z,103408.28
2023-02-13T07:23:03.985Z,103419.47
2023-02-13T07:25:31.467Z,103420.28
2023-02-13T07:28:02.463Z,103422.00
2023-02-13T07:30:30.283Z,103421.13
2023-02-13T07:33:01.764Z,103415.94
2023-02-13T07:35:28.385Z,103426.28
2023-02-13T07:37:55.478Z,103423.63
2023-02-13T07:40:22.308Z,103425.38
2023-02-13T07:42:49.029Z,103429.75
2023-02-13T07:45:16.174Z,103428.91
2023-02-13T07:47:42.967Z,103432.38
2023-02-13T07:50:10.109Z,103435.88
2023-02-13T07:52:37.992Z,103435.91
2023-02-13T07:55:05.603Z,103437.69
2023-02-13T07:57:32.129Z,103438.56
2023-02-13T07:59:58.610Z,103442.88
2023-02-13T08:02:25.240Z,103435.97
2023-02-13T08:04:51.750Z,103436.91
2023-02-13T08:07:18.594Z,103436.91
2023-02-13T08:10:04.429Z,103435.25
2023-02-13T08:12:32.940Z,103445.63
2023-02-13T08:14:59.521Z,103445.63
2023-02-13T08:17:26.013Z,103449.13
2023-02-13T08:19:52.517Z,103444.66
2023-02-13T08:22:18.996Z,103440.50
2023-02-13T08:24:45.484Z,103442.31
2023-02-13T08:27:15.518Z,103445.00
2023-02-13T08:29:42.116Z,103442.47
2023-02-13T08:32:08.896Z,103439.94
2023-02-13T08:34:35.522Z,103446.03
2023-02-13T08:37:03.255Z,103450.41
2023-02-13T08:39:29.707Z,103449.44
2023-02-13T08:41:56.162Z,103449.50
2023-02-13T08:44:22.749Z,103446.97
2023-02-13T08:46:49.290Z,103451.38
2023-02-13T08:49:15.837Z,103442.78
2023-02-13T08:51:42.451Z,103448.00
2023-02-13T08:54:09.145Z,103448.97
2023-02-13T08:56:35.908Z,103447.19
2023-02-13T08:59:02.608Z,103448.16
2023-02-13T09:01:29.146Z,103452.50
2023-02-13T09:03:55.658Z,103445.63
2023-02-13T09:06:23.072Z,103450.81
2023-02-13T09:08:49.625Z,103452.44
2023-02-13T09:11:16.451Z,103449.03
2023-02-13T09:13:47.852Z,103449.91
2023-02-13T09:16:14.600Z,103455.94
2023-02-13T09:18:41.116Z,103452.47
2023-02-13T09:21:11.813Z,103454.22
2023-02-13T09:23:40.758Z,103450.81
2023-02-13T09:26:10.696Z,103452.47
2023-02-13T09:28:37.814Z,103449.06
2023-02-13T09:31:08.935Z,103447.41
2023-02-13T09:33:36.513Z,103450.03
2023-02-13T09:36:11.649Z,103452.72
2023-02-13T09:38:38.119Z,103455.28
2023-02-13T09:41:12.764Z,103457.03
2023-02-13T09:44:00.222Z,103454.50
2023-02-13T09:46:32.575Z,103452.81
2023-02-13T09:49:03.112Z,103451.03
2023-02-13T09:51:29.614Z,103457.09
2023-02-13T09:54:05.596Z,103452.72
2023-02-13T09:56:39.464Z,103458.88
2023-02-13T09:59:30.449Z,103455.47
2023-02-13T10:02:01.169Z,103452.94
2023-02-13T10:04:39.525Z,103453.81
2023-02-13T10:07:26.323Z,103451.25
2023-02-13T10:10:21.575Z,103448.69
2023-02-13T10:12:53.851Z,103445.22
2023-02-13T10:15:35.412Z,103456.50
2023-02-13T10:18:06.415Z,103457.38
2023-02-13T10:20:39.696Z,103448.72
2023-02-13T10:23:22.493Z,103453.84
2023-02-13T10:25:53.071Z,103455.59
2023-02-13T10:28:30.442Z,103453.88
2023-02-13T10:31:03.231Z,103457.38
2023-02-13T10:33:40.929Z,103459.13
2023-02-13T10:36:18.185Z,103443.53
2023-02-13T10:38:55.025Z,103452.22
2023-02-13T10:41:54.719Z,103450.50
2023-02-13T10:44:36.970Z,103449.63
2023-02-13T10:47:32.094Z,103452.25
2023-02-13T10:50:37.167Z,103436.69
2023-02-13T10:53:30.656Z,103439.28
2023-02-13T10:56:17.591Z,103434.94
2023-02-13T10:59:08.577Z,103433.22
2023-02-13T11:01:56.627Z,103429.75
2023-02-13T11:04:23.534Z,103427.16
2023-02-13T11:06:57.881Z,103425.44
2023-02-13T11:09:25.373Z,103416.81
2023-02-13T11:11:52.423Z,103422.88
2023-02-13T11:14:24.705Z,103423.72
2023-02-13T11:16:51.823Z,103415.94
2023-02-13T11:19:21.790Z,103403.81
2023-02-13T11:21:54.493Z,103399.47
2023-02-13T11:24:24.601Z,103407.28
2023-02-13T11:26:54.859Z,103408.16
2023-02-13T11:29:26.492Z,103398.63
2023-02-13T11:32:03.627Z,103391.69
2023-02-13T11:34:32.202Z,103394.34
2023-02-13T11:37:13.987Z,103390.00
2023-02-13T11:39:41.973Z,103389.06
2023-02-13T11:42:24.593Z,103386.47
2023-02-13T11:45:06.111Z,103383.03
2023-02-13T11:47:39.446Z,103383.06
2023-02-13T11:50:21.460Z,103376.13
2023-02-13T11:52:56.089Z,103377.00
2023-02-13T11:55:38.718Z,103370.03
2023-02-13T11:58:11.079Z,103371.81
2023-02-13T12:00:41.831Z,103370.06
2023-02-13T12:03:20.413Z,103366.59
2023-02-13T12:06:08.582Z,103357.94
2023-02-13T12:08:39.198Z,103354.44
2023-02-13T12:11:29.750Z,103351.84
2023-02-13T12:13:57.562Z,103353.59
2023-02-13T12:16:34.138Z,103357.03
2023-02-13T12:19:06.849Z,103356.19
2023-02-13T12:22:21.773Z,103346.66
2023-02-13T12:25:18.761Z,103338.81
2023-02-13T12:28:07.722Z,103337.09
2023-02-13T12:30:46.353Z,103331.88
2023-02-13T12:33:43.903Z,103333.63
2023-02-13T12:36:18.936Z,103316.31
2023-02-13T12:39:13.713Z,103325.78
2023-02-13T12:42:16.335Z,103326.63
2023-02-13T12:45:10.974Z,103324.03
2023-02-13T12:48:12.931Z,103310.16
2023-02-13T12:50:42.574Z,103313.59
2023-02-13T12:53:16.540Z,103304.94
2023-02-13T12:55:58.200Z,103303.16
2023-02-13T12:58:44.942Z,103302.31
2023-02-13T13:01:40.452Z,103300.56
2023-02-13T13:04:21.788Z,103299.72
2023-02-13T13:07:00.984Z,103286.69
2023-02-13T13:09:45.835Z,103286.69
2023-02-13T13:12:35.143Z,103291.88
2023-02-13T13:15:06.644Z,103288.38
2023-02-13T13:17:48.346Z,103284.03
2023-02-13T13:20:24.947Z,103282.31
2023-02-13T13:22:55.593Z,103286.63
2023-02-13T13:25:25.598Z,103280.53
2023-02-13T13:28:04.604Z,103277.06
2023-02-13T13:30:36.916Z,103273.59
2023-02-13T13:33:16.816Z,103261.44
2023-02-13T13:35:56.086Z,103265.75
2023-02-13T13:38:31.678Z,103264.88
2023-02-13T13:41:46.290Z,103266.59
2023-02-13T13:44:45.115Z,103257.03
2023-02-13T13:47:21.728Z,103262.22
2023-02-13T13:50:00.011Z,103256.16
2023-02-13T13:52:39.828Z,103255.28
2023-02-13T13:55:26.670Z,103256.13
2023-02-13T13:58:00.310Z,103250.09
2023-02-13T14:00:29.604Z,103251.84
2023-02-13T14:02:59.035Z,103250.09
2023-02-13T14:05:34.190Z,103250.94
2023-02-13T14:08:24.859Z,103247.44
2023-02-13T14:11:03.425Z,103245.72
2023-02-13T14:13:35.818Z,103239.66
2023-02-13T14:16:04.579Z,103239.69
2023-02-13T14:18:31.628Z,103236.22
2023-02-13T14:21:01.114Z,103230.13
2023-02-13T14:23:33.943Z,103226.63
2023-02-13T14:26:15.328Z,103225.75
2023-02-13T14:28:50.834Z,103225.72
2023-02-13T14:31:27.572Z,103229.19
2023-02-13T14:34:00.582Z,103223.09
2023-02-13T14:36:36.532Z,103224.00
2023-02-13T14:39:21.091Z,103222.28
2023-02-13T14:41:56.904Z,103217.91
2023-02-13T14:44:32.462Z,103211.00
2023-02-13T14:47:01.994Z,103213.56
2023-02-13T14:49:35.901Z,103217.00
2023-02-13T14:52:08.492Z,103208.34
2023-02-13T14:54:42.874Z,103215.28
2023-02-13T14:57:51.795Z,103210.94
2023-02-13T15:00:36.599Z,103212.69
2023-02-13T15:03:13.795Z,103202.25
2023-02-13T15:05:41.224Z,103208.34
2023-02-13T15:08:17.190Z,103201.41
2023-02-13T15:10:47.587Z,103202.31
2023-02-13T15:13:28.904Z,103204.03
2023-02-13T15:16:01.032Z,103204.88
2023-02-13T15:18:30.722Z,103200.53
2023-02-13T15:21:00.835Z,103197.94
2023-02-13T15:23:32.929Z,103190.16
2023-02-13T15:26:05.552Z,103195.34
2023-02-13T15:28:32.974Z,103195.34
2023-02-13T15:31:20.991Z,103196.22
2023-02-13T15:33:49.833Z,103196.19
2023-02-13T15:36:19.146Z,103192.72
2023-02-13T15:38:46.013Z,103201.44
2023-02-13T15:41:18.698Z,103196.25
2023-02-13T15:43:49.070Z,103196.25
2023-02-13T15:46:30.533Z,103204.94
2023-02-13T15:49:17.220Z,103197.13
2023-02-13T15:51:44.390Z,103199.78
2023-02-13T15:54:28.941Z,103200.63
2023-02-13T15:56:59.179Z,103195.44
2023-02-13T15:59:33.924Z,103192.84
2023-02-13T16:02:01.259Z,103192.84
2023-02-13T16:04:28.565Z,103184.22
2023-02-13T16:06:59.157Z,103183.34
2023-02-13T16:09:34.946Z,103189.44
2023-02-13T16:12:13.564Z,103185.09
2023-02-13T16:14:48.719Z,103179.88
2023-02-13T16:17:32.142Z,103178.97
2023-02-13T16:20:25.464Z,103177.28
2023-02-13T16:23:01.354Z,103186.84
2023-02-13T16:25:35.570Z,103180.81
2023-02-13T16:28:09.452Z,103185.16
2023-02-13T16:30:39.460Z,103181.75
2023-02-13T16:33:15.081Z,103187.84
2023-02-13T16:35:44.079Z,103178.38
2023-02-13T16:38:41.771Z,103180.16
2023-02-13T16:41:17.629Z,103183.63
2023-02-13T16:43:54.677Z,103184.53
2023-02-13T16:46:27.031Z,103190.66
2023-02-13T16:48:56.274Z,103179.44
2023-02-13T16:51:47.708Z,103185.50
2023-02-13T16:54:22.404Z,103183.78
2023-02-13T16:56:56.039Z,103189.03
2023-02-13T16:59:30.653Z,103188.16
2023-02-13T17:02:17.622Z,103196.78
2023-02-13T17:04:45.873Z,103186.44
2023-02-13T17:07:15.231Z,103187.28
2023-02-13T17:09:41.842Z,103191.66
2023-02-13T17:12:15.000Z,103198.59
2023-02-13T17:14:41.859Z,103207.25
2023-02-13T17:17:13.678Z,103202.06
2023-02-13T17:19:40.413Z,103214.19
2023-02-13T17:22:07.842Z,103221.13
2023-02-13T17:24:34.536Z,103214.22
2023-02-13T17:27:01.048Z,103218.53
2023-02-13T17:29:27.559Z,103225.47
2023-02-13T17:31:56.969Z,103228.06
2023-02-13T17:34:23.585Z,103233.25
2023-02-13T17:36:50.095Z,103234.13
2023-02-13T17:39:18.875Z,103230.69
2023-02-13T17:41:45.616Z,103236.72
2023-02-13T17:44:13.774Z,103239.34
2023-02-13T17:46:41.144Z,103238.44
2023-02-13T17:49:07.719Z,103243.63
2023-02-13T17:51:35.777Z,103240.19
2023-02-13T17:54:02.370Z,103243.66
2023-02-13T17:59:59.296Z,103238.47
2023-02-13T18:02:28.282Z,103242.78
2023-02-13T18:04:58.051Z,103230.66
2023-02-13T18:07:24.961Z,103223.75
2023-02-13T18:09:51.519Z,103233.25
2023-02-13T18:12:21.375Z,103221.16
2023-02-13T18:14:48.814Z,103229.78
2023-02-13T18:17:16.000Z,103228.94
2023-02-13T18:19:44.080Z,103228.91
2023-02-13T18:22:11.811Z,103225.47
2023-02-13T18:24:41.066Z,103223.72
2023-02-13T18:27:08.794Z,103227.19
2023-02-13T18:29:38.264Z,103233.22
2023-02-13T18:32:10.158Z,103231.47
2023-02-13T18:34:38.668Z,103236.66
2023-02-13T18:37:06.817Z,103232.31
2023-02-13T18:39:34.253Z,103235.78
2023-02-13T18:42:01.086Z,103231.44
2023-02-13T18:44:28.901Z,103229.72
2023-02-13T18:46:56.019Z,103234.88
2023-02-13T18:49:22.809Z,103231.41
2023-02-13T18:51:49.547Z,103230.53
2023-02-13T18:54:18.024Z,103226.19
2023-02-13T18:56:45.463Z,103227.06
2023-02-13T18:59:12.186Z,103227.94
2023-02-13T19:01:38.852Z,103227.06
2023-02-13T19:04:05.992Z,103221.88
2023-02-13T19:06:32.675Z,103221.03
2023-02-13T19:08:59.703Z,103221.00
2023-02-13T19:11:27.225Z,103223.59
2023-02-13T19:14:00.521Z,103223.56
2023-02-13T19:16:29.588Z,103216.63
2023-02-13T19:19:00.188Z,103224.41
2023-02-13T19:21:29.261Z,103220.06
2023-02-13T19:23:55.815Z,103226.97
2023-02-13T19:26:25.149Z,103221.78
2023-02-13T19:28:52.476Z,103232.13
2023-02-13T19:31:21.734Z,103230.41
2023-02-13T19:33:49.840Z,103230.41
2023-02-13T19:36:19.838Z,103226.06
2023-02-13T19:38:47.732Z,103239.88
2023-02-13T19:41:17.204Z,103234.63
2023-02-13T19:43:50.987Z,103239.78
2023-02-13T19:46:19.866Z,103241.53
2023-02-13T19:48:49.567Z,103238.91
2023-02-13T19:51:18.825Z,103249.22
2023-02-13T19:53:45.695Z,103249.22
2023-02-13T19:56:14.660Z,103248.34
2023-02-13T19:58:42.700Z,103248.34
2023-02-13T20:01:17.960Z,103252.66
2023-02-13T20:03:45.220Z,103248.31
2023-02-13T20:06:14.871Z,103252.63
2023-02-13T20:08:43.111Z,103253.50
2023-02-13T20:11:12.142Z,103254.34
2023-02-13T20:13:39.858Z,103262.97
2023-02-13T20:16:12.830Z,103259.53
2023-02-13T20:18:39.977Z,103251.72
2023-02-13T20:21:07.827Z,103250.00
2023-02-13T20:23:34.655Z,103252.56
2023-02-13T20:26:06.610Z,103252.56
2023-02-13T20:28:33.261Z,103249.06
2023-02-13T20:31:04.110Z,103244.75
2023-02-13T20:33:30.895Z,103244.75
2023-02-13T20:35:57.449Z,103252.53
2023-02-13T20:38:24.027Z,103248.16
2023-02-13T20:40:50.490Z,103239.53
2023-02-13T20:43:16.984Z,103243.84
2023-02-13T20:45:43.573Z,103239.53
2023-02-13T20:48:10.123Z,103245.53
2023-02-13T20:50:39.711Z,103243.78
2023-02-13T20:53:06.274Z,103248.09
2023-02-13T20:55:32.973Z,103236.88
2023-02-13T20:57:59.560Z,103241.19
2023-02-13T21:00:26.273Z,103236.84
2023-02-13T21:02:52.796Z,103237.69
2023-02-13T21:05:19.339Z,103240.28
2023-02-13T21:07:46.778Z,103242.81
2023-02-13T21:10:15.524Z,103248.00
2023-02-13T21:12:42.089Z,103244.53
2023-02-13T21:15:09.128Z,103241.03
2023-02-13T21:17:35.707Z,103241.03
2023-02-13T21:20:02.291Z,103238.44
2023-02-13T21:22:30.133Z,103234.13
2023-02-13T21:24:56.714Z,103231.53
2023-02-13T21:27:23.428Z,103230.63
2023-02-13T21:29:50.042Z,103238.38
2023-02-13T21:32:16.745Z,103239.25
2023-02-13T21:34:45.517Z,103239.22
2023-02-13T21:37:12.185Z,103243.50
2023-02-13T21:39:39.735Z,103232.28
2023-02-13T21:42:06.269Z,103240.03
2023-02-13T21:44:33.576Z,103233.97
2023-02-13T21:47:00.124Z,103235.69
2023-02-13T21:49:26.745Z,103237.38
2023-02-13T21:51:53.469Z,103238.22
2023-02-13T21:54:19.976Z,103236.47
2023-02-13T21:56:46.867Z,103242.50
2023-02-13T21:59:17.373Z,103232.16
2023-02-13T22:01:46.258Z,103233.84
2023-02-13T22:04:13.136Z,103241.59
2023-02-13T22:06:40.641Z,103240.72
2023-02-13T22:09:13.094Z,103242.44
2023-02-13T22:11:40.419Z,103233.81
2023-02-13T22:14:11.478Z,103237.25
2023-02-13T22:16:38.944Z,103235.47
2023-02-13T22:19:07.046Z,103236.34
2023-02-13T22:21:35.373Z,103238.94
2023-02-13T22:24:02.279Z,103237.19
2023-02-13T22:26:34.194Z,103241.47
2023-02-13T22:29:05.722Z,103234.56
2023-02-13T22:31:32.424Z,103237.13
2023-02-13T22:34:03.799Z,103232.81
2023-02-13T22:36:38.973Z,103235.41
2023-02-13T22:39:07.066Z,103240.56
2023-02-13T22:41:33.625Z,103240.56
2023-02-13T22:44:00.164Z,103231.97
2023-02-13T22:46:30.429Z,103231.16
2023-02-13T22:48:58.038Z,103237.19
2023-02-13T22:51:28.480Z,103234.59
2023-02-13T22:53:56.714Z,103235.47
2023-02-13T22:56:24.688Z,103240.63
2023-02-13T22:58:51.335Z,103244.09
2023-02-13T23:01:20.271Z,103238.06
2023-02-13T23:03:47.229Z,103240.63
2023-02-13T23:06:18.047Z,103244.94
2023-02-13T23:08:45.572Z,103242.34
2023-02-13T23:11:33.453Z,103242.34
2023-02-13T23:14:00.688Z,103239.72
2023-02-13T23:16:27.628Z,103245.75
2023-02-13T23:18:57.821Z,103241.44
2023-02-13T23:21:25.593Z,103238.84
2023-02-13T23:23:52.436Z,103237.09
2023-02-13T23:26:19.449Z,103243.94
2023-02-13T23:28:46.002Z,103235.31
2023-02-13T23:31:12.695Z,103239.63
2023-02-13T23:33:39.268Z,103249.97
2023-02-13T23:36:06.312Z,103243.94
2023-02-13T23:38:32.831Z,103239.63
2023-02-13T23:41:09.324Z,103236.16
2023-02-13T23:43:36.278Z,103244.75
2023-02-13T23:46:06.847Z,103249.91
2023-02-13T23:48:34.130Z,103245.56
2023-02-13T23:51:01.737Z,103244.72
2023-02-13T23:53:28.568Z,103242.97
2023-02-13T23:55:55.192Z,103243.78
2023-02-13T23:58:22.008Z,103240.34
